Ana Sayfa
METAR-TAF:

METAR-TAF

Havaalanları :

Wink, Teksas, Amerika Birleşik Devletleri

Enlem: 31-46-47N, Boylam: 103-12-05W, yükseklik: 860 m

Güncel hava durumu gözlemi

Rapor saat 19:53 UTC de 22 dakika önce yapıldı.
Rüzgar güneydoğudan 6 kt ve 16 kt'a kadar ani rüzgarlar
Sıcaklık 29°C
Nem 27%
Basınç 1020 hPa
Görüş mesafesi: 16.1 km
Açık gökyüzü

METAR: KINK 311953Z AUTO 13006G16KT 10SM CLR 29/08 A3011 RMK AO2 SLP152 T02890083 $

Saat: 15:15 (20:15 UTC)

Tahmin

Rapor saat 17:20 UTC de 2 saat ve 55 dakika önce yapıldı.
Ayın 31'si saat 18 UTC'den ayın 01'si saat 18 UTC'ye kadar geçerli Tahmin
Rüzgar güneydoğudan 10 kt
Görüş mesafesi: 10 km
25000 ft yükseklikte az bulutlu
Ayın 01'si saat 1000 UTC'den
Rüzgar güneydoğudan 6 kt
Görüş mesafesi: 10 km
1500 ft yükseklikte parçalı çok bulutlu

TAF: KINK 311720Z 3118/0118 14010KT P6SM FEW250 FM011000 14006KT P6SM BKN015

4.000'den fazla havaalanı için hava durumu gözlemleri ve tahminleri (METAR ve TAF raporları).

Kullanılabilir istasyonlar harita üzerinde sarı ve kırmızı noktalarla gösterilir.

İstasyonun adını görmek için fareyi noktanın üzerinde gezdirin.

Sonrasında hava gözlem ve tahminlerini görmek için tıklayın.

Haritayı değiştirmek için: yaklaştırmak için siyah artı işaretli yeşil düğmeye ve uzaklaştırmak için de eksi işaretli düğmeye hızla tıklayın; bitişik haritalar için yeşil okları kullanın.


METAR-TAF: